sensor_id;sensor_type;location;lat;lon;timestamp;pressure;altitude;pressure_sealevel;temperature;humidity
6393;BME280;3229;42.674;23.282;2023-06-24T00:00:02;94672.59;;;22.67;87.92
6393;BME280;3229;42.674;23.282;2023-06-24T00:02:32;94677.59;;;22.68;88.01
6393;BME280;3229;42.674;23.282;2023-06-24T00:05:01;94670.19;;;22.65;88.75
6393;BME280;3229;42.674;23.282;2023-06-24T00:07:29;94670.03;;;22.60;89.75
6393;BME280;3229;42.674;23.282;2023-06-24T00:09:55;94664.44;;;22.57;89.96
6393;BME280;3229;42.674;23.282;2023-06-24T00:12:23;94665.09;;;22.52;90.32
6393;BME280;3229;42.674;23.282;2023-06-24T00:14:50;94664.50;;;22.50;90.78
6393;BME280;3229;42.674;23.282;2023-06-24T00:17:17;94668.31;;;22.47;90.55
6393;BME280;3229;42.674;23.282;2023-06-24T00:19:44;94669.97;;;22.42;90.61
6393;BME280;3229;42.674;23.282;2023-06-24T00:22:11;94665.41;;;22.37;90.74
6393;BME280;3229;42.674;23.282;2023-06-24T00:24:38;94656.03;;;22.29;90.95
6393;BME280;3229;42.674;23.282;2023-06-24T00:27:05;94667.47;;;22.28;91.15
6393;BME280;3229;42.674;23.282;2023-06-24T00:29:33;94659.25;;;22.25;91.51
6393;BME280;3229;42.674;23.282;2023-06-24T00:32:00;94668.09;;;22.24;91.52
6393;BME280;3229;42.674;23.282;2023-06-24T00:34:27;94665.09;;;22.20;91.36
6393;BME280;3229;42.674;23.282;2023-06-24T00:36:54;94666.13;;;22.19;91.56
6393;BME280;3229;42.674;23.282;2023-06-24T00:39:21;94674.91;;;22.18;91.54
6393;BME280;3229;42.674;23.282;2023-06-24T00:41:49;94671.13;;;22.14;91.98
6393;BME280;3229;42.674;23.282;2023-06-24T00:44:16;94661.16;;;22.04;92.43
6393;BME280;3229;42.674;23.282;2023-06-24T00:46:44;94662.56;;;22.07;92.31
6393;BME280;3229;42.674;23.282;2023-06-24T00:49:11;94659.34;;;22.05;92.75
6393;BME280;3229;42.674;23.282;2023-06-24T00:51:42;94654.53;;;22.02;92.57
6393;BME280;3229;42.674;23.282;2023-06-24T00:54:15;94658.38;;;21.99;92.55
6393;BME280;3229;42.674;23.282;2023-06-24T00:56:43;94647.59;;;21.96;92.68
6393;BME280;3229;42.674;23.282;2023-06-24T00:59:13;94645.03;;;21.89;93.50
6393;BME280;3229;42.674;23.282;2023-06-24T01:01:41;94623.66;;;21.74;93.33
6393;BME280;3229;42.674;23.282;2023-06-24T01:04:11;94651.22;;;21.88;93.14
6393;BME280;3229;42.674;23.282;2023-06-24T01:06:38;94646.44;;;21.85;93.52
6393;BME280;3229;42.674;23.282;2023-06-24T01:09:10;94647.44;;;21.84;93.76
6393;BME280;3229;42.674;23.282;2023-06-24T01:11:37;94645.28;;;21.81;94.12
6393;BME280;3229;42.674;23.282;2023-06-24T01:14:03;94646.25;;;21.80;94.07
6393;BME280;3229;42.674;23.282;2023-06-24T01:16:35;94646.47;;;21.78;94.42
6393;BME280;3229;42.674;23.282;2023-06-24T01:19:13;94639.88;;;21.76;94.36
6393;BME280;3229;42.674;23.282;2023-06-24T01:21:58;94640.50;;;21.71;95.05
6393;BME280;3229;42.674;23.282;2023-06-24T01:24:50;94635.72;;;21.68;94.78
6393;BME280;3229;42.674;23.282;2023-06-24T01:27:38;94640.31;;;21.66;95.10
6393;BME280;3229;42.674;23.282;2023-06-24T01:30:34;94642.34;;;21.64;95.35
6393;BME280;3229;42.674;23.282;2023-06-24T01:33:10;94651.97;;;21.64;95.26
6393;BME280;3229;42.674;23.282;2023-06-24T01:35:41;94656.38;;;21.63;95.57
6393;BME280;3229;42.674;23.282;2023-06-24T01:38:22;94658.97;;;21.63;96.06
6393;BME280;3229;42.674;23.282;2023-06-24T01:40:53;94659.59;;;21.52;96.13
6393;BME280;3229;42.674;23.282;2023-06-24T01:43:23;94660.22;;;21.47;96.14
6393;BME280;3229;42.674;23.282;2023-06-24T01:45:52;94660.81;;;21.49;96.28
6393;BME280;3229;42.674;23.282;2023-06-24T01:48:24;94664.00;;;21.51;96.26
6393;BME280;3229;42.674;23.282;2023-06-24T01:50:58;94674.81;;;21.55;96.09
6393;BME280;3229;42.674;23.282;2023-06-24T01:53:26;94686.44;;;21.46;96.24
6393;BME280;3229;42.674;23.282;2023-06-24T01:55:54;94672.25;;;21.35;96.35
6393;BME280;3229;42.674;23.282;2023-06-24T01:58:23;94673.66;;;21.31;96.42
6393;BME280;3229;42.674;23.282;2023-06-24T02:00:52;94670.47;;;21.29;96.48
6393;BME280;3229;42.674;23.282;2023-06-24T02:03:22;94679.25;;;21.28;96.70
6393;BME280;3229;42.674;23.282;2023-06-24T02:05:50;94685.47;;;21.27;96.60
6393;BME280;3229;42.674;23.282;2023-06-24T02:08:20;94683.25;;;21.24;96.92
6393;BME280;3229;42.674;23.282;2023-06-24T02:10:48;94689.47;;;21.23;96.88
6393;BME280;3229;42.674;23.282;2023-06-24T02:13:17;94687.09;;;21.21;96.56
6393;BME280;3229;42.674;23.282;2023-06-24T02:15:46;94684.47;;;21.21;96.59
6393;BME280;3229;42.674;23.282;2023-06-24T02:18:15;94680.47;;;21.19;97.01
6393;BME280;3229;42.674;23.282;2023-06-24T02:20:46;94683.88;;;21.19;96.88
6393;BME280;3229;42.674;23.282;2023-06-24T02:23:14;94683.28;;;21.17;96.88
6393;BME280;3229;42.674;23.282;2023-06-24T02:25:42;94701.50;;;21.17;96.91
6393;BME280;3229;42.674;23.282;2023-06-24T02:28:09;94701.50;;;21.17;96.80
6393;BME280;3229;42.674;23.282;2023-06-24T02:30:37;94706.91;;;21.16;97.36
6393;BME280;3229;42.674;23.282;2023-06-24T02:33:05;94713.09;;;21.21;97.07
6393;BME280;3229;42.674;23.282;2023-06-24T02:35:32;94719.31;;;21.20;96.79
6393;BME280;3229;42.674;23.282;2023-06-24T02:38:00;94719.31;;;21.20;96.58
6393;BME280;3229;42.674;23.282;2023-06-24T02:40:28;94720.91;;;21.21;96.78
6393;BME280;3229;42.674;23.282;2023-06-24T02:42:56;94721.91;;;21.20;96.72
6393;BME280;3229;42.674;23.282;2023-06-24T02:45:23;94725.47;;;21.19;97.02
6393;BME280;3229;42.674;23.282;2023-06-24T02:47:51;94729.31;;;21.17;96.94
6393;BME280;3229;42.674;23.282;2023-06-24T02:50:19;94716.50;;;21.09;96.94
6393;BME280;3229;42.674;23.282;2023-06-24T02:52:47;94726.31;;;21.13;97.12
6393;BME280;3229;42.674;23.282;2023-06-24T02:55:16;94731.50;;;21.13;97.18
6393;BME280;3229;42.674;23.282;2023-06-24T02:57:43;94730.50;;;21.14;97.27
6393;BME280;3229;42.674;23.282;2023-06-24T03:00:12;94732.50;;;21.12;97.27
6393;BME280;3229;42.674;23.282;2023-06-24T03:02:40;94734.50;;;21.17;97.01
6393;BME280;3229;42.674;23.282;2023-06-24T03:05:10;94745.69;;;21.24;97.20
6393;BME280;3229;42.674;23.282;2023-06-24T03:07:38;94735.72;;;21.21;97.12
6393;BME280;3229;42.674;23.282;2023-06-24T03:10:07;94733.91;;;21.21;97.20
6393;BME280;3229;42.674;23.282;2023-06-24T03:12:37;94728.50;;;21.23;97.19
6393;BME280;3229;42.674;23.282;2023-06-24T03:15:05;94730.69;;;21.26;97.01
6393;BME280;3229;42.674;23.282;2023-06-24T03:17:32;94734.50;;;21.30;96.77
6393;BME280;3229;42.674;23.282;2023-06-24T03:19:59;94739.50;;;21.38;95.89
6393;BME280;3229;42.674;23.282;2023-06-24T03:22:26;94734.50;;;21.43;96.08
6393;BME280;3229;42.674;23.282;2023-06-24T03:24:52;94745.47;;;21.52;95.74
6393;BME280;3229;42.674;23.282;2023-06-24T03:27:19;94749.84;;;21.58;95.44
6393;BME280;3229;42.674;23.282;2023-06-24T03:29:47;94751.44;;;21.66;95.19
6393;BME280;3229;42.674;23.282;2023-06-24T03:32:14;94759.44;;;21.71;95.37
6393;BME280;3229;42.674;23.282;2023-06-24T03:34:41;94768.03;;;21.78;94.99
6393;BME280;3229;42.674;23.282;2023-06-24T03:37:07;94768.22;;;21.83;94.78
6393;BME280;3229;42.674;23.282;2023-06-24T03:39:34;94760.00;;;21.86;94.76
6393;BME280;3229;42.674;23.282;2023-06-24T03:42:01;94764.38;;;21.92;94.71
6393;BME280;3229;42.674;23.282;2023-06-24T03:44:28;94769.75;;;22.04;94.47
6393;BME280;3229;42.674;23.282;2023-06-24T03:46:56;94774.75;;;22.12;93.79
6393;BME280;3229;42.674;23.282;2023-06-24T03:49:23;94782.34;;;22.20;93.57
6393;BME280;3229;42.674;23.282;2023-06-24T03:51:50;94779.06;;;22.32;93.04
6393;BME280;3229;42.674;23.282;2023-06-24T03:54:16;94747.47;;;22.21;92.69
6393;BME280;3229;42.674;23.282;2023-06-24T03:56:44;94774.78;;;22.50;92.66
6393;BME280;3229;42.674;23.282;2023-06-24T03:59:10;94767.13;;;22.56;92.34
6393;BME280;3229;42.674;23.282;2023-06-24T04:01:38;94771.88;;;22.65;91.69
6393;BME280;3229;42.674;23.282;2023-06-24T04:04:06;94774.59;;;22.77;90.92
6393;BME280;3229;42.674;23.282;2023-06-24T04:06:33;94775.38;;;22.84;90.61
6393;BME280;3229;42.674;23.282;2023-06-24T04:08:59;94784.91;;;22.97;90.47
6393;BME280;3229;42.674;23.282;2023-06-24T04:11:27;94785.03;;;23.09;89.95
6393;BME280;3229;42.674;23.282;2023-06-24T04:13:54;94774.41;;;23.10;88.25
6393;BME280;3229;42.674;23.282;2023-06-24T04:16:21;94703.59;;;22.75;87.32
6393;BME280;3229;42.674;23.282;2023-06-24T04:18:48;94770.88;;;23.23;87.37
6393;BME280;3229;42.674;23.282;2023-06-24T04:21:16;94762.97;;;23.29;86.79
6393;BME280;3229;42.674;23.282;2023-06-24T04:23:43;94764.09;;;23.40;86.31
6393;BME280;3229;42.674;23.282;2023-06-24T04:26:09;94771.81;;;23.53;85.57
6393;BME280;3229;42.674;23.282;2023-06-24T04:28:36;94693.22;;;23.18;84.86
6393;BME280;3229;42.674;23.282;2023-06-24T04:31:04;94756.16;;;23.72;83.95
6393;BME280;3229;42.674;23.282;2023-06-24T04:33:30;94743.81;;;23.79;83.99
6393;BME280;3229;42.674;23.282;2023-06-24T04:35:57;94743.81;;;23.79;83.23
6393;BME280;3229;42.674;23.282;2023-06-24T04:38:26;94757.44;;;23.99;82.42
6393;BME280;3229;42.674;23.282;2023-06-24T04:40:53;94768.69;;;24.18;82.05
6393;BME280;3229;42.674;23.282;2023-06-24T04:43:19;94771.88;;;24.20;81.90
6393;BME280;3229;42.674;23.282;2023-06-24T04:45:46;94765.44;;;24.23;80.99
6393;BME280;3229;42.674;23.282;2023-06-24T04:48:13;94778.41;;;24.29;80.59
6393;BME280;3229;42.674;23.282;2023-06-24T04:50:40;94773.75;;;24.32;79.70
6393;BME280;3229;42.674;23.282;2023-06-24T04:53:07;94782.56;;;24.37;79.96
6393;BME280;3229;42.674;23.282;2023-06-24T04:55:35;94779.03;;;24.43;79.56
6393;BME280;3229;42.674;23.282;2023-06-24T04:58:02;94734.72;;;24.18;79.55
6393;BME280;3229;42.674;23.282;2023-06-24T05:00:29;94778.66;;;24.58;79.63
6393;BME280;3229;42.674;23.282;2023-06-24T05:02:56;94783.69;;;24.71;79.80
6393;BME280;3229;42.674;23.282;2023-06-24T05:05:23;94779.75;;;24.81;78.39
6393;BME280;3229;42.674;23.282;2023-06-24T05:07:50;94780.91;;;24.85;78.35
6393;BME280;3229;42.674;23.282;2023-06-24T05:10:17;94754.81;;;24.78;78.04
6393;BME280;3229;42.674;23.282;2023-06-24T05:12:46;94778.69;;;25.12;76.80
6393;BME280;3229;42.674;23.282;2023-06-24T05:15:13;94778.38;;;25.32;76.54
6393;BME280;3229;42.674;23.282;2023-06-24T05:17:40;94773.03;;;25.62;76.14
6393;BME280;3229;42.674;23.282;2023-06-24T05:20:08;94766.50;;;25.99;74.49
6393;BME280;3229;42.674;23.282;2023-06-24T05:22:35;94765.03;;;26.32;72.54
6393;BME280;3229;42.674;23.282;2023-06-24T05:25:02;94765.06;;;26.61;70.98
6393;BME280;3229;42.674;23.282;2023-06-24T05:27:28;94760.56;;;26.73;70.09
6393;BME280;3229;42.674;23.282;2023-06-24T05:29:57;94755.41;;;26.95;69.28
6393;BME280;3229;42.674;23.282;2023-06-24T05:32:24;94752.56;;;27.13;68.29
6393;BME280;3229;42.674;23.282;2023-06-24T05:34:51;94755.50;;;27.34;68.54
6393;BME280;3229;42.674;23.282;2023-06-24T05:37:18;94771.44;;;27.83;67.24
6393;BME280;3229;42.674;23.282;2023-06-24T05:39:45;94770.94;;;28.30;65.30
6393;BME280;3229;42.674;23.282;2023-06-24T05:42:12;94776.34;;;28.67;63.94
6393;BME280;3229;42.674;23.282;2023-06-24T05:44:38;94775.66;;;29.04;63.68
6393;BME280;3229;42.674;23.282;2023-06-24T05:47:06;94776.97;;;29.38;62.42
6393;BME280;3229;42.674;23.282;2023-06-24T05:49:33;94764.53;;;29.66;62.55
6393;BME280;3229;42.674;23.282;2023-06-24T05:52:00;94769.69;;;29.93;60.79
6393;BME280;3229;42.674;23.282;2023-06-24T05:54:27;94762.84;;;29.97;59.29
6393;BME280;3229;42.674;23.282;2023-06-24T05:56:54;94756.84;;;30.12;59.23
6393;BME280;3229;42.674;23.282;2023-06-24T05:59:21;94760.09;;;30.34;57.77
6393;BME280;3229;42.674;23.282;2023-06-24T06:01:48;94761.44;;;30.47;57.29
6393;BME280;3229;42.674;23.282;2023-06-24T06:04:16;94758.31;;;30.55;57.13
6393;BME280;3229;42.674;23.282;2023-06-24T06:06:43;94760.44;;;30.63;57.32
6393;BME280;3229;42.674;23.282;2023-06-24T06:09:10;94758.91;;;30.88;56.94
6393;BME280;3229;42.674;23.282;2023-06-24T06:11:37;94752.31;;;31.06;56.81
6393;BME280;3229;42.674;23.282;2023-06-24T06:14:04;94753.09;;;31.27;55.21
6393;BME280;3229;42.674;23.282;2023-06-24T06:16:31;94752.84;;;31.43;55.28
6393;BME280;3229;42.674;23.282;2023-06-24T06:18:58;94756.00;;;31.61;53.49
6393;BME280;3229;42.674;23.282;2023-06-24T06:21:26;94758.34;;;31.62;54.48
6393;BME280;3229;42.674;23.282;2023-06-24T06:23:52;94757.00;;;31.80;54.10
6393;BME280;3229;42.674;23.282;2023-06-24T06:26:19;94756.75;;;31.87;52.60
6393;BME280;3229;42.674;23.282;2023-06-24T06:28:46;94756.16;;;31.95;52.61
6393;BME280;3229;42.674;23.282;2023-06-24T06:31:13;94761.44;;;32.05;51.27
6393;BME280;3229;42.674;23.282;2023-06-24T06:33:40;94769.59;;;32.14;51.09
6393;BME280;3229;42.674;23.282;2023-06-24T06:36:07;94770.66;;;32.18;51.48
6393;BME280;3229;42.674;23.282;2023-06-24T06:38:35;94764.34;;;32.09;51.36
6393;BME280;3229;42.674;23.282;2023-06-24T06:41:02;94775.59;;;32.30;51.14
6393;BME280;3229;42.674;23.282;2023-06-24T06:43:29;94777.13;;;32.51;50.38
6393;BME280;3229;42.674;23.282;2023-06-24T06:45:56;94768.81;;;32.68;49.72
6393;BME280;3229;42.674;23.282;2023-06-24T06:48:23;94780.38;;;32.82;49.79
6393;BME280;3229;42.674;23.282;2023-06-24T06:50:50;94780.25;;;33.08;49.31
6393;BME280;3229;42.674;23.282;2023-06-24T06:53:18;94778.28;;;33.18;48.58
6393;BME280;3229;42.674;23.282;2023-06-24T06:55:46;94779.31;;;33.22;48.30
6393;BME280;3229;42.674;23.282;2023-06-24T06:58:14;94773.38;;;33.36;48.11
6393;BME280;3229;42.674;23.282;2023-06-24T07:00:42;94775.78;;;33.32;47.87
6393;BME280;3229;42.674;23.282;2023-06-24T07:03:09;94772.75;;;33.15;48.08
6393;BME280;3229;42.674;23.282;2023-06-24T07:05:36;94771.41;;;33.17;48.11
6393;BME280;3229;42.674;23.282;2023-06-24T07:08:05;94776.31;;;33.34;47.59
6393;BME280;3229;42.674;23.282;2023-06-24T07:10:32;94786.25;;;33.18;47.49
6393;BME280;3229;42.674;23.282;2023-06-24T07:13:00;94773.47;;;32.91;47.93
6393;BME280;3229;42.674;23.282;2023-06-24T07:15:27;94786.97;;;32.95;47.54
6393;BME280;3229;42.674;23.282;2023-06-24T07:17:54;94773.78;;;32.80;47.54
6393;BME280;3229;42.674;23.282;2023-06-24T07:20:22;94778.06;;;32.70;47.56
6393;BME280;3229;42.674;23.282;2023-06-24T07:22:48;94773.78;;;32.80;48.24
6393;BME280;3229;42.674;23.282;2023-06-24T07:25:15;94768.63;;;32.99;47.64
6393;BME280;3229;42.674;23.282;2023-06-24T07:27:42;94778.44;;;32.98;48.60
6393;BME280;3229;42.674;23.282;2023-06-24T07:30:11;94767.72;;;33.13;48.58
6393;BME280;3229;42.674;23.282;2023-06-24T07:32:37;94773.59;;;33.39;47.96
6393;BME280;3229;42.674;23.282;2023-06-24T07:35:05;94765.50;;;33.60;47.47
6393;BME280;3229;42.674;23.282;2023-06-24T07:37:32;94767.19;;;33.75;46.96
6393;BME280;3229;42.674;23.282;2023-06-24T07:39:59;94767.13;;;33.80;47.40
6393;BME280;3229;42.674;23.282;2023-06-24T07:42:25;94765.44;;;33.89;46.08
6393;BME280;3229;42.674;23.282;2023-06-24T07:44:52;94765.59;;;34.03;45.91
6393;BME280;3229;42.674;23.282;2023-06-24T07:47:20;94762.81;;;34.13;45.72
6393;BME280;3229;42.674;23.282;2023-06-24T07:49:47;94758.22;;;34.18;45.13
6393;BME280;3229;42.674;23.282;2023-06-24T07:52:14;94762.34;;;34.30;45.73
6393;BME280;3229;42.674;23.282;2023-06-24T07:54:41;94764.44;;;34.33;44.73
6393;BME280;3229;42.674;23.282;2023-06-24T07:57:08;94767.75;;;34.19;44.52
6393;BME280;3229;42.674;23.282;2023-06-24T07:59:35;94775.25;;;33.88;45.46
6393;BME280;3229;42.674;23.282;2023-06-24T08:02:02;94779.91;;;33.78;45.87
6393;BME280;3229;42.674;23.282;2023-06-24T08:04:30;94774.00;;;33.81;45.65
6393;BME280;3229;42.674;23.282;2023-06-24T08:06:57;94780.78;;;33.92;45.77
6393;BME280;3229;42.674;23.282;2023-06-24T08:09:24;94776.78;;;33.70;46.01
6393;BME280;3229;42.674;23.282;2023-06-24T08:11:51;94775.19;;;33.69;46.50
6393;BME280;3229;42.674;23.282;2023-06-24T08:14:18;94776.00;;;33.94;46.38
6393;BME280;3229;42.674;23.282;2023-06-24T08:16:45;94776.25;;;33.98;46.07
6393;BME280;3229;42.674;23.282;2023-06-24T08:19:11;94767.50;;;33.97;45.89
6393;BME280;3229;42.674;23.282;2023-06-24T08:21:40;94774.16;;;33.94;45.77
6393;BME280;3229;42.674;23.282;2023-06-24T08:24:07;94769.06;;;33.74;46.33
6393;BME280;3229;42.674;23.282;2023-06-24T08:26:34;94765.19;;;33.61;47.02
6393;BME280;3229;42.674;23.282;2023-06-24T08:29:00;94763.50;;;33.70;46.72
6393;BME280;3229;42.674;23.282;2023-06-24T08:31:27;94760.38;;;33.68;46.31
6393;BME280;3229;42.674;23.282;2023-06-24T08:33:54;94759.44;;;33.54;47.48
6393;BME280;3229;42.674;23.282;2023-06-24T08:36:27;94764.56;;;33.45;47.48
6393;BME280;3229;42.674;23.282;2023-06-24T08:38:56;94762.22;;;33.39;47.53
6393;BME280;3229;42.674;23.282;2023-06-24T08:41:23;94736.72;;;33.14;48.00
6393;BME280;3229;42.674;23.282;2023-06-24T08:43:52;94748.59;;;33.21;48.74
6393;BME280;3229;42.674;23.282;2023-06-24T08:46:19;94736.59;;;33.29;48.50
6393;BME280;3229;42.674;23.282;2023-06-24T08:48:48;94743.03;;;33.52;48.10
6393;BME280;3229;42.674;23.282;2023-06-24T08:51:18;94741.28;;;33.66;47.40
6393;BME280;3229;42.674;23.282;2023-06-24T08:53:47;94750.25;;;33.70;46.63
6393;BME280;3229;42.674;23.282;2023-06-24T08:56:16;94737.78;;;33.71;47.22
6393;BME280;3229;42.674;23.282;2023-06-24T08:58:43;94739.16;;;33.68;47.40
6393;BME280;3229;42.674;23.282;2023-06-24T09:01:11;94743.47;;;33.59;47.37
6393;BME280;3229;42.674;23.282;2023-06-24T09:03:38;94743.44;;;33.64;47.29
6393;BME280;3229;42.674;23.282;2023-06-24T09:06:05;94744.28;;;33.60;47.32
6393;BME280;3229;42.674;23.282;2023-06-24T09:08:32;94736.69;;;33.48;47.88
6393;BME280;3229;42.674;23.282;2023-06-24T09:11:00;94732.19;;;33.43;48.74
6393;BME280;3229;42.674;23.282;2023-06-24T09:13:34;94736.72;;;33.43;48.74
6393;BME280;3229;42.674;23.282;2023-06-24T09:16:11;94734.63;;;33.40;48.33
6393;BME280;3229;42.674;23.282;2023-06-24T09:18:38;94735.63;;;33.49;48.12
6393;BME280;3229;42.674;23.282;2023-06-24T09:21:05;94738.13;;;33.64;48.25
6393;BME280;3229;42.674;23.282;2023-06-24T09:23:35;94741.31;;;33.61;48.22
6393;BME280;3229;42.674;23.282;2023-06-24T09:26:04;94738.56;;;33.71;47.94
6393;BME280;3229;42.674;23.282;2023-06-24T09:28:30;94733.72;;;33.79;47.87
6393;BME280;3229;42.674;23.282;2023-06-24T09:31:08;94735.81;;;33.82;47.26
6393;BME280;3229;42.674;23.282;2023-06-24T09:33:35;94741.97;;;33.77;47.01
6393;BME280;3229;42.674;23.282;2023-06-24T09:36:03;94743.38;;;33.69;47.35
6393;BME280;3229;42.674;23.282;2023-06-24T09:38:34;94709.09;;;33.49;47.21
6393;BME280;3229;42.674;23.282;2023-06-24T09:41:02;94742.66;;;33.59;47.35
6393;BME280;3229;42.674;23.282;2023-06-24T09:43:30;94746.09;;;33.64;47.02
6393;BME280;3229;42.674;23.282;2023-06-24T09:45:57;94744.03;;;33.56;47.14
6393;BME280;3229;42.674;23.282;2023-06-24T09:48:25;94735.78;;;33.58;47.03
6393;BME280;3229;42.674;23.282;2023-06-24T09:50:53;94727.59;;;33.54;47.11
6393;BME280;3229;42.674;23.282;2023-06-24T09:53:20;94737.94;;;33.56;46.82
6393;BME280;3229;42.674;23.282;2023-06-24T09:55:48;94728.91;;;33.57;46.48
6393;BME280;3229;42.674;23.282;2023-06-24T09:58:16;94717.22;;;33.29;47.20
6393;BME280;3229;42.674;23.282;2023-06-24T10:00:44;94732.50;;;33.13;47.73
6393;BME280;3229;42.674;23.282;2023-06-24T10:03:11;94718.94;;;33.14;48.11
6393;BME280;3229;42.674;23.282;2023-06-24T10:05:40;94682.50;;;33.01;48.06
6393;BME280;3229;42.674;23.282;2023-06-24T10:08:09;94705.38;;;33.21;48.15
6393;BME280;3229;42.674;23.282;2023-06-24T10:10:36;94714.47;;;33.10;48.36
6393;BME280;3229;42.674;23.282;2023-06-24T10:13:03;94703.19;;;32.99;47.92
6393;BME280;3229;42.674;23.282;2023-06-24T10:15:31;94708.53;;;32.89;48.31
6393;BME280;3229;42.674;23.282;2023-06-24T10:18:01;94693.84;;;32.67;48.42
6393;BME280;3229;42.674;23.282;2023-06-24T10:20:28;94699.09;;;32.72;47.72
6393;BME280;3229;42.674;23.282;2023-06-24T10:22:56;94692.19;;;32.77;47.52
6393;BME280;3229;42.674;23.282;2023-06-24T10:25:25;94678.00;;;32.62;48.16
6393;BME280;3229;42.674;23.282;2023-06-24T10:28:01;94676.97;;;32.58;48.33
6393;BME280;3229;42.674;23.282;2023-06-24T10:30:29;94687.81;;;32.62;48.04
6393;BME280;3229;42.674;23.282;2023-06-24T10:32:57;94683.06;;;32.59;47.08
6393;BME280;3229;42.674;23.282;2023-06-24T10:35:25;94680.66;;;32.62;46.13
6393;BME280;3229;42.674;23.282;2023-06-24T10:37:57;94670.41;;;32.51;46.58
6393;BME280;3229;42.674;23.282;2023-06-24T10:40:37;94676.50;;;32.51;47.39
6393;BME280;3229;42.674;23.282;2023-06-24T10:43:25;94644.56;;;32.32;46.71
6393;BME280;3229;42.674;23.282;2023-06-24T10:45:53;94654.81;;;32.49;47.48
6393;BME280;3229;42.674;23.282;2023-06-24T10:48:20;94642.84;;;32.57;46.87
6393;BME280;3229;42.674;23.282;2023-06-24T10:50:47;94634.06;;;32.61;47.29
6393;BME280;3229;42.674;23.282;2023-06-24T10:53:16;94632.94;;;32.67;46.89
6393;BME280;3229;42.674;23.282;2023-06-24T10:55:45;94633.78;;;32.63;47.16
6393;BME280;3229;42.674;23.282;2023-06-24T10:58:14;94628.53;;;32.58;47.49
6393;BME280;3229;42.674;23.282;2023-06-24T11:00:42;94637.59;;;32.52;47.42
6393;BME280;3229;42.674;23.282;2023-06-24T11:03:13;94624.34;;;32.52;45.69
6393;BME280;3229;42.674;23.282;2023-06-24T11:05:41;94619.19;;;32.65;45.50
6393;BME280;3229;42.674;23.282;2023-06-24T11:08:08;94627.38;;;32.69;46.39
6393;BME280;3229;42.674;23.282;2023-06-24T11:10:44;94620.03;;;32.61;46.04
6393;BME280;3229;42.674;23.282;2023-06-24T11:13:11;94623.38;;;32.71;46.03
6393;BME280;3229;42.674;23.282;2023-06-24T11:15:38;94627.78;;;32.81;45.48
6393;BME280;3229;42.674;23.282;2023-06-24T11:18:07;94638.84;;;32.88;43.80
6393;BME280;3229;42.674;23.282;2023-06-24T11:20:36;94643.13;;;32.84;44.52
6393;BME280;3229;42.674;23.282;2023-06-24T11:23:05;94626.81;;;32.72;45.10
6393;BME280;3229;42.674;23.282;2023-06-24T11:25:38;94627.78;;;32.81;43.94
6393;BME280;3229;42.674;23.282;2023-06-24T11:28:12;94624.91;;;32.78;44.43
6393;BME280;3229;42.674;23.282;2023-06-24T11:30:39;94624.53;;;32.89;44.14
6393;BME280;3229;42.674;23.282;2023-06-24T11:33:06;94635.34;;;32.98;43.75
6393;BME280;3229;42.674;23.282;2023-06-24T11:35:33;94617.03;;;33.02;44.12
6393;BME280;3229;42.674;23.282;2023-06-24T11:38:01;94625.38;;;33.14;44.74
6393;BME280;3229;42.674;23.282;2023-06-24T11:40:30;94614.97;;;33.22;44.38
6393;BME280;3229;42.674;23.282;2023-06-24T11:42:57;94618.34;;;33.28;44.07
6393;BME280;3229;42.674;23.282;2023-06-24T11:45:26;94618.50;;;33.13;44.53
6393;BME280;3229;42.674;23.282;2023-06-24T11:47:52;94622.63;;;33.00;45.13
6393;BME280;3229;42.674;23.282;2023-06-24T11:50:26;94608.63;;;32.89;44.96
6393;BME280;3229;42.674;23.282;2023-06-24T11:52:54;94605.00;;;32.80;44.75
6393;BME280;3229;42.674;23.282;2023-06-24T11:55:22;94603.72;;;32.78;45.10
6393;BME280;3229;42.674;23.282;2023-06-24T11:57:50;94604.28;;;32.75;44.39
6393;BME280;3229;42.674;23.282;2023-06-24T12:00:20;94595.63;;;32.64;44.37
6393;BME280;3229;42.674;23.282;2023-06-24T12:02:52;94576.25;;;32.68;44.20
6393;BME280;3229;42.674;23.282;2023-06-24T12:05:27;94567.19;;;32.75;43.96
6393;BME280;3229;42.674;23.282;2023-06-24T12:07:55;94564.16;;;32.86;43.85
6393;BME280;3229;42.674;23.282;2023-06-24T12:10:22;94556.13;;;32.96;44.03
6393;BME280;3229;42.674;23.282;2023-06-24T12:12:49;94557.66;;;33.03;43.92
6393;BME280;3229;42.674;23.282;2023-06-24T12:15:16;94549.53;;;32.94;44.05
6393;BME280;3229;42.674;23.282;2023-06-24T12:17:43;94554.22;;;33.02;43.28
6393;BME280;3229;42.674;23.282;2023-06-24T12:20:11;94571.69;;;33.03;43.71
6393;BME280;3229;42.674;23.282;2023-06-24T12:22:39;94566.69;;;33.02;43.82
6393;BME280;3229;42.674;23.282;2023-06-24T12:25:07;94553.06;;;32.84;43.62
6393;BME280;3229;42.674;23.282;2023-06-24T12:27:34;94557.81;;;32.87;43.11
6393;BME280;3229;42.674;23.282;2023-06-24T12:30:01;94564.72;;;32.83;44.33
6393;BME280;3229;42.674;23.282;2023-06-24T12:32:28;94544.69;;;32.72;44.32
6393;BME280;3229;42.674;23.282;2023-06-24T12:34:54;94547.03;;;32.79;44.34
6393;BME280;3229;42.674;23.282;2023-06-24T12:37:23;94562.53;;;32.90;43.89
6393;BME280;3229;42.674;23.282;2023-06-24T12:39:50;94568.09;;;32.89;43.74
6393;BME280;3229;42.674;23.282;2023-06-24T12:42:17;94578.19;;;32.92;42.85
6393;BME280;3229;42.674;23.282;2023-06-24T12:44:46;94591.78;;;32.80;43.03
6393;BME280;3229;42.674;23.282;2023-06-24T12:47:12;94604.28;;;32.75;43.33
6393;BME280;3229;42.674;23.282;2023-06-24T12:49:39;94587.72;;;32.59;44.71
6393;BME280;3229;42.674;23.282;2023-06-24T12:52:06;94621.75;;;32.76;44.57
6393;BME280;3229;42.674;23.282;2023-06-24T12:54:35;94623.91;;;32.74;44.57
6393;BME280;3229;42.674;23.282;2023-06-24T12:57:02;94636.91;;;32.70;45.93
6393;BME280;3229;42.674;23.282;2023-06-24T12:59:29;94626.56;;;32.68;49.13
6393;BME280;3229;42.674;23.282;2023-06-24T13:01:56;94615.63;;;32.46;47.80
6393;BME280;3229;42.674;23.282;2023-06-24T13:04:23;94607.19;;;32.44;46.72
6393;BME280;3229;42.674;23.282;2023-06-24T13:06:51;94602.97;;;32.38;47.05
6393;BME280;3229;42.674;23.282;2023-06-24T13:09:18;94598.25;;;32.30;47.75
6393;BME280;3229;42.674;23.282;2023-06-24T13:11:46;94594.41;;;32.17;48.92
6393;BME280;3229;42.674;23.282;2023-06-24T13:14:13;94531.44;;;31.69;49.50